MSC Vega — D5BE4 — position and weather

sailwx.info

Track history (hours):
 
Tides and Currents Weather Stations Pressure Air Temp Water Temp Dewpoint Dewpoint Depression Visibility Wind Speed Wind Dir Waves Ship Positions

MSC Vega

Last reported at 2017-Nov-23 18:30 UTC. Time now 2017-Nov-23 18:47 UTC.
Position N 51°58' E 001°17'.

Length 366 m; draft 13.8 m.

Type: Ship (hazmat cat A). MMSI: 636015506.

Date/timePositionNaut miles runAvg speedWind from/ knotsBaromVisibWave heightAir tempDewpointWater temp
2017-Nov-23 18:30N 51°58' E 001°17'0 0.0
2017-Nov-23 18:00N 51°58' E 001°17'0 0.0
2017-Nov-23 17:30N 51°58' E 001°17'0 0.0
2017-Nov-23 17:00N 51°58' E 001°17'0 0.0
2017-Nov-23 16:30N 51°58' E 001°17'0 0.0
2017-Nov-23 16:00N 51°58' E 001°17'0 0.0
2017-Nov-23 15:30N 51°58' E 001°17'0 0.0
2017-Nov-23 15:00N 51°58' E 001°17'0 0.0
2017-Nov-23 14:30N 51°58' E 001°17'0 0.0
2017-Nov-23 14:00N 51°58' E 001°17'0 0.0
2017-Nov-23 13:30N 51°58' E 001°17'0 0.0
2017-Nov-23 13:00N 51°58' E 001°17'0 0.0
2017-Nov-23 12:30N 51°58' E 001°17'0 0.0
2017-Nov-23 12:00N 51°58' E 001°17'0 0.0
2017-Nov-23 11:30N 51°58' E 001°17'0 0.0
2017-Nov-23 11:00N 51°58' E 001°17'0 0.0
2017-Nov-23 10:30N 51°58' E 001°17'0 0.0
2017-Nov-23 10:00N 51°58' E 001°17'0 0.0
2017-Nov-23 09:30N 51°58' E 001°17'0 0.0
2017-Nov-23 09:00N 51°58' E 001°17'0 0.0
2017-Nov-23 08:30N 51°58' E 001°17'0 0.0
2017-Nov-23 08:00N 51°58' E 001°17'0 0.0
2017-Nov-23 07:30N 51°58' E 001°17'0 0.0
2017-Nov-23 07:00N 51°58' E 001°17'0 0.0
2017-Nov-23 06:30N 51°58' E 001°17'0 0.0
2017-Nov-23 06:00N 51°58' E 001°17'0 0.0
2017-Nov-23 05:30N 51°58' E 001°17'0 0.0
2017-Nov-23 05:00N 51°58' E 001°17'0 0.0
2017-Nov-23 04:30N 51°58' E 001°17'0 0.0
2017-Nov-23 04:00N 51°58' E 001°17'0 0.0
2017-Nov-23 03:30N 51°58' E 001°17'0 0.0
2017-Nov-23 03:00N 51°58' E 001°17'0 0.0
2017-Nov-23 02:30N 51°58' E 001°17'0 0.0
2017-Nov-23 02:00N 51°58' E 001°17'0 0.0
2017-Nov-23 01:30N 51°58' E 001°17'0 0.0
2017-Nov-23 01:00N 51°58' E 001°17'0 0.0
2017-Nov-23 00:30N 51°58' E 001°17'0 0.0
2017-Nov-23 00:00N 51°58' E 001°17'0 0.0
2017-Nov-22 23:30N 51°58' E 001°17'0 0.0
2017-Nov-22 23:00N 51°58' E 001°17'0 0.0
2017-Nov-22 22:30N 51°58' E 001°17'0 0.0
2017-Nov-22 22:00N 51°58' E 001°17'0 0.0
2017-Nov-22 21:30N 51°58' E 001°17'0 0.0
2017-Nov-22 21:00N 51°58' E 001°17'0 0.0
2017-Nov-22 20:30N 51°58' E 001°17'0 0.0
2017-Nov-22 20:00N 51°58' E 001°17'0 0.0
2017-Nov-22 19:30N 51°58' E 001°17'  
2017-Nov-20 00:28N 51°17' E 004°15'0 0.0
2017-Nov-19 23:58N 51°17' E 004°15'0 0.0
2017-Nov-19 23:28N 51°17' E 004°15'0 0.0
2017-Nov-19 22:58N 51°17' E 004°15'0 0.0
2017-Nov-19 22:28N 51°17' E 004°15'0 0.0
2017-Nov-19 21:58N 51°17' E 004°15'0 0.0
2017-Nov-19 21:28N 51°17' E 004°15'0 0.0
2017-Nov-19 20:58N 51°17' E 004°15'0 0.0
2017-Nov-19 20:28N 51°17' E 004°15'0 0.2
2017-Nov-19 20:00N 51°17' E 004°15'1 2.0
2017-Nov-19 19:30N 51°18' E 004°16'1 1.6
2017-Nov-19 19:00N 51°19' E 004°16'3 6.4
2017-Nov-19 18:31N 51°22' E 004°13'4 7.0
2017-Nov-19 18:00N 51°22' E 004°08'5 9.7
2017-Nov-19 17:30N 51°25' E 004°02'510.2
2017-Nov-19 17:00N 51°22' E 003°55'713.0
2017-Nov-19 16:30N 51°22' E 003°45'612.2
2017-Nov-19 16:00N 51°26' E 003°38'4 8.1
2017-Nov-19 15:30N 51°25' E 003°31'612.6
2017-Nov-19 15:00N 51°24' E 003°22'815.8
2017-Nov-19 14:30N 51°24' E 003°09'918.1
2017-Nov-19 14:00N 51°25' E 002°54'815.4
2017-Nov-19 13:31N 51°23' E 002°43'4 7.1
2017-Nov-19 13:00N 51°23' E 002°37'4 7.6
2017-Nov-19 12:29N 51°22' E 002°31'612.3
2017-Nov-19 12:00N 51°19' E 002°22'713.7
2017-Nov-19 11:31N 51°15' E 002°13'917.0
2017-Nov-19 11:01N 51°12' E 002°01'1121.3
2017-Nov-19 10:31N 51°08' E 001°46'1020.5
2017-Nov-19 10:01N 51°00' E 001°34'1019.9
2017-Nov-19 09:31N 50°51' E 001°28'1019.5
2017-Nov-19 09:00N 50°42' E 001°22'2020.5
2017-Nov-19 08:00N 50°29' E 000°57'2521.2
2017-Nov-19 06:50N 50°22' E 000°19'720.7
2017-Nov-19 06:31N 50°20' E 000°10'1020.4
2017-Nov-19 06:01N 50°16' W 000°05'1020.2
2017-Nov-19 05:31N 50°14' W 000°21'1019.9
2017-Nov-19 05:01N 50°11' W 000°36'1019.4
2017-Nov-19 04:30N 50°09' W 000°51'918.7
2017-Nov-19 04:00N 50°07' W 001°04'918.1
2017-Nov-19 03:30N 50°03' W 001°18'917.3
2017-Nov-19 03:00N 50°01' W 001°31'917.1
2017-Nov-19 02:30N 49°59' W 001°44'815.7
2017-Nov-19 02:00N 49°57' W 001°55'815.7
2017-Nov-19 01:31N 49°56' W 002°07'1117.1
2017-Nov-19 00:53N 49°53' W 002°24'718.0
2017-Nov-19 00:29N 49°52' W 002°34'918.6
2017-Nov-19 00:01N 49°50' W 002°48'1119.0
2017-Nov-18 23:25N 49°46' W 003°04'819.3
2017-Nov-18 23:00N 49°42' W 003°15'5819.7
2017-Nov-18 20:01N 49°12' W 004°32'020.8
2017-Nov-18 20:01N 49°12' W 004°33'1121.0
2017-Nov-18 19:29N 49°06' W 004°47'1021.2
2017-Nov-18 19:00N 49°01' W 005°00'1121.3
2017-Nov-18 18:30N 48°56' W 005°14'1122.0
2017-Nov-18 18:00N 48°50' W 005°28'1121.3
2017-Nov-18 17:29N 48°42' W 005°41'1121.9
2017-Nov-18 16:59N 48°32' W 005°48'1121.9
2017-Nov-18 16:30N 48°23' W 005°56'1222.0
2017-Nov-18 15:57N 48°12' W 006°04'1122.2
2017-Nov-18 15:28N 48°03' W 006°11'1122.4
2017-Nov-18 14:59N 47°53' W 006°19'1122.4
2017-Nov-18 14:29N 47°43' W 006°27'1222.7
2017-Nov-18 13:58N 47°33' W 006°35'1121.9
2017-Nov-18 13:29N 47°23' W 006°42'1121.3
2017-Nov-18 12:58N 47°13' W 006°49'1021.4
2017-Nov-18 12:30N 47°05' W 006°56'1121.2
2017-Nov-18 12:00N 46°55' W 007°03'1220.9
2017-Nov-18 11:26N 46°45' W 007°11'1220.8
2017-Nov-18 10:51N 46°34' W 007°19'27819.5
2017-Nov-17 20:36N 42°17' W 009°48'419.3
2017-Nov-17 20:25N 42°14' W 009°48'3219.5
2017-Nov-17 18:45N 41°41' W 009°50'519.7
2017-Nov-17 18:30N 41°36' W 009°49'1119.4
2017-Nov-17 17:57N 41°26' W 009°50'2719.1
2017-Nov-17 16:32N 40°59' W 009°50'119.1
2017-Nov-17 16:30N 40°58' W 009°50'919.2
2017-Nov-17 16:00N 40°48' W 009°50'1019.6
2017-Nov-17 15:31N 40°39' W 009°50'1019.7
2017-Nov-17 15:00N 40°29' W 009°50'2120.0
2017-Nov-17 13:56N 40°07' W 009°50'2119.7
2017-Nov-17 12:54N 39°47' W 009°51'719.2
2017-Nov-17 12:30N 39°39' W 009°51'1019.1
2017-Nov-17 12:00N 39°30' W 009°51'1019.4
2017-Nov-17 11:29N 39°20' W 009°52'919.7
2017-Nov-17 11:00N 39°10' W 009°52'1019.4
2017-Nov-17 10:30N 39°01' W 009°52'1019.5
2017-Nov-17 10:00N 38°51' W 009°52'1019.5
2017-Nov-17 09:30N 38°41' W 009°51'918.5
2017-Nov-17 09:00N 38°33' W 009°45'1019.2
2017-Nov-17 08:30N 38°25' W 009°38'1019.9
2017-Nov-17 08:00N 38°18' W 009°30'1019.7
2017-Nov-17 07:30N 38°10' W 009°23'1019.7
2017-Nov-17 07:00N 38°03' W 009°13'1020.3
2017-Nov-17 06:31N 37°58' W 009°02'917.9
2017-Nov-17 06:00N 37°55' W 008°51'1 2.1
2017-Nov-17 05:28N 37°56' W 008°51'0 0.0
2017-Nov-17 04:58N 37°56' W 008°51'0 0.0
2017-Nov-17 04:28N 37°56' W 008°51'0 0.0
2017-Nov-17 03:58N 37°56' W 008°51'0 0.0
2017-Nov-17 03:28N 37°56' W 008°51'0 0.0
2017-Nov-17 02:58N 37°56' W 008°51'0 0.0
2017-Nov-17 02:28N 37°56' W 008°51'0 0.0
2017-Nov-17 01:58N 37°56' W 008°51'0 0.0
2017-Nov-17 01:28N 37°56' W 008°51'0 0.0
2017-Nov-17 00:58N 37°56' W 008°51'0 0.0
2017-Nov-17 00:28N 37°56' W 008°51'0 0.0
2017-Nov-16 23:58N 37°56' W 008°51'0 0.0
2017-Nov-16 23:28N 37°56' W 008°51'0 0.0
2017-Nov-16 22:58N 37°56' W 008°51'0 0.0
2017-Nov-16 22:28N 37°56' W 008°51'0 0.0
2017-Nov-16 21:58N 37°56' W 008°51'0 0.0
2017-Nov-16 21:28N 37°56' W 008°51'0 0.0
2017-Nov-16 20:58N 37°56' W 008°51'0 0.0
2017-Nov-16 20:28N 37°56' W 008°51'0 0.0
2017-Nov-16 19:58N 37°56' W 008°51'0 0.0
2017-Nov-16 19:28N 37°56' W 008°51'0 0.0
2017-Nov-16 18:58N 37°56' W 008°51'0 0.0
2017-Nov-16 18:28N 37°56' W 008°51'0 0.0
2017-Nov-16 17:58N 37°56' W 008°51'0 0.0
2017-Nov-16 17:28N 37°56' W 008°51'0 0.0
2017-Nov-16 16:58N 37°56' W 008°51'0 0.0
2017-Nov-16 16:28N 37°56' W 008°51'0 0.0
2017-Nov-16 15:58N 37°56' W 008°51'0 0.0
2017-Nov-16 15:28N 37°56' W 008°51'0 0.0
2017-Nov-16 14:58N 37°56' W 008°51'0 0.0
2017-Nov-16 14:28N 37°56' W 008°51'0 0.0
2017-Nov-16 13:58N 37°56' W 008°51'0 0.0
2017-Nov-16 13:28N 37°56' W 008°51'0 0.0
2017-Nov-16 12:58N 37°56' W 008°51'0 0.0
2017-Nov-16 12:28N 37°56' W 008°51'0 0.0
2017-Nov-16 11:58N 37°56' W 008°51'0 0.6
2017-Nov-16 11:31N 37°56' W 008°50'1 2.2
2017-Nov-16 11:00N 37°54' W 008°51'2 3.2
2017-Nov-16 10:31N 37°53' W 008°51'2 4.2
2017-Nov-16 10:01N 37°51' W 008°52'4 8.0
2017-Nov-16 09:31N 37°47' W 008°54'611.3
2017-Nov-16 09:00N 37°42' W 008°58'817.0
2017-Nov-16 08:30N 37°35' W 009°02'917.4
2017-Nov-16 08:00N 37°27' W 009°07'918.3
2017-Nov-16 07:30N 37°19' W 009°12'918.7
2017-Nov-16 07:00N 37°10' W 009°17'918.5
2017-Nov-16 06:30N 37°01' W 009°20'917.1
2017-Nov-16 06:00N 36°52' W 009°20'917.6
2017-Nov-16 05:30N 36°46' W 009°12'917.9
2017-Nov-16 05:00N 36°43' W 009°01'918.6
2017-Nov-16 04:30N 36°40' W 008°51'918.6
2017-Nov-16 04:00N 36°37' W 008°40'918.8
2017-Nov-16 03:30N 36°33' W 008°29'1018.6
2017-Nov-16 02:59N 36°30' W 008°17'1018.5
2017-Nov-16 02:28N 36°27' W 008°06'12619.2
2017-Nov-15 19:56N 35°58' W 005°35'818.5
2017-Nov-15 19:30N 35°60' W 005°25'918.2
2017-Nov-15 19:00N 36°03' W 005°15'  
Track history (hours):
 
Tides and Currents Weather Stations Pressure Air Temp Water Temp Dewpoint Dewpoint Depression Visibility Wind Speed Wind Dir Waves Ship Positions

MSC Vega

Last reported at 2017-Nov-23 18:30 UTC. Time now 2017-Nov-23 18:47 UTC.
Position N 51°58' E 001°17'.

Length 366 m; draft 13.8 m.

Type: Ship (hazmat cat A). MMSI: 636015506.

Date/timePositionNaut miles runAvg speedWind from/ knotsBaromVisibWave heightAir tempDewpointWater temp
2017-Nov-23 18:30N 51°58' E 001°17'0 0.0
2017-Nov-23 18:00N 51°58' E 001°17'0 0.0
2017-Nov-23 17:30N 51°58' E 001°17'0 0.0
2017-Nov-23 17:00N 51°58' E 001°17'0 0.0
2017-Nov-23 16:30N 51°58' E 001°17'0 0.0
2017-Nov-23 16:00N 51°58' E 001°17'0 0.0
2017-Nov-23 15:30N 51°58' E 001°17'0 0.0
2017-Nov-23 15:00N 51°58' E 001°17'0 0.0
2017-Nov-23 14:30N 51°58' E 001°17'0 0.0
2017-Nov-23 14:00N 51°58' E 001°17'0 0.0
2017-Nov-23 13:30N 51°58' E 001°17'0 0.0
2017-Nov-23 13:00N 51°58' E 001°17'0 0.0
2017-Nov-23 12:30N 51°58' E 001°17'0 0.0
2017-Nov-23 12:00N 51°58' E 001°17'0 0.0
2017-Nov-23 11:30N 51°58' E 001°17'0 0.0
2017-Nov-23 11:00N 51°58' E 001°17'0 0.0
2017-Nov-23 10:30N 51°58' E 001°17'0 0.0
2017-Nov-23 10:00N 51°58' E 001°17'0 0.0
2017-Nov-23 09:30N 51°58' E 001°17'0 0.0
2017-Nov-23 09:00N 51°58' E 001°17'0 0.0
2017-Nov-23 08:30N 51°58' E 001°17'0 0.0
2017-Nov-23 08:00N 51°58' E 001°17'0 0.0
2017-Nov-23 07:30N 51°58' E 001°17'0 0.0
2017-Nov-23 07:00N 51°58' E 001°17'0 0.0
2017-Nov-23 06:30N 51°58' E 001°17'0 0.0
2017-Nov-23 06:00N 51°58' E 001°17'0 0.0
2017-Nov-23 05:30N 51°58' E 001°17'0 0.0
2017-Nov-23 05:00N 51°58' E 001°17'0 0.0
2017-Nov-23 04:30N 51°58' E 001°17'0 0.0
2017-Nov-23 04:00N 51°58' E 001°17'0 0.0
2017-Nov-23 03:30N 51°58' E 001°17'0 0.0
2017-Nov-23 03:00N 51°58' E 001°17'0 0.0
2017-Nov-23 02:30N 51°58' E 001°17'0 0.0
2017-Nov-23 02:00N 51°58' E 001°17'0 0.0
2017-Nov-23 01:30N 51°58' E 001°17'0 0.0
2017-Nov-23 01:00N 51°58' E 001°17'0 0.0
2017-Nov-23 00:30N 51°58' E 001°17'0 0.0
2017-Nov-23 00:00N 51°58' E 001°17'0 0.0
2017-Nov-22 23:30N 51°58' E 001°17'0 0.0
2017-Nov-22 23:00N 51°58' E 001°17'0 0.0
2017-Nov-22 22:30N 51°58' E 001°17'0 0.0
2017-Nov-22 22:00N 51°58' E 001°17'0 0.0
2017-Nov-22 21:30N 51°58' E 001°17'0 0.0
2017-Nov-22 21:00N 51°58' E 001°17'0 0.0
2017-Nov-22 20:30N 51°58' E 001°17'0 0.0
2017-Nov-22 20:00N 51°58' E 001°17'0 0.0
2017-Nov-22 19:30N 51°58' E 001°17'  
2017-Nov-20 00:28N 51°17' E 004°15'0 0.0
2017-Nov-19 23:58N 51°17' E 004°15'0 0.0
2017-Nov-19 23:28N 51°17' E 004°15'0 0.0
2017-Nov-19 22:58N 51°17' E 004°15'0 0.0
2017-Nov-19 22:28N 51°17' E 004°15'0 0.0
2017-Nov-19 21:58N 51°17' E 004°15'0 0.0
2017-Nov-19 21:28N 51°17' E 004°15'0 0.0
2017-Nov-19 20:58N 51°17' E 004°15'0 0.0
2017-Nov-19 20:28N 51°17' E 004°15'0 0.2
2017-Nov-19 20:00N 51°17' E 004°15'1 2.0
2017-Nov-19 19:30N 51°18' E 004°16'1 1.6
2017-Nov-19 19:00N 51°19' E 004°16'3 6.4
2017-Nov-19 18:31N 51°22' E 004°13'4 7.0
2017-Nov-19 18:00N 51°22' E 004°08'5 9.7
2017-Nov-19 17:30N 51°25' E 004°02'510.2
2017-Nov-19 17:00N 51°22' E 003°55'713.0
2017-Nov-19 16:30N 51°22' E 003°45'612.2
2017-Nov-19 16:00N 51°26' E 003°38'4 8.1
2017-Nov-19 15:30N 51°25' E 003°31'612.6
2017-Nov-19 15:00N 51°24' E 003°22'815.8
2017-Nov-19 14:30N 51°24' E 003°09'918.1
2017-Nov-19 14:00N 51°25' E 002°54'815.4
2017-Nov-19 13:31N 51°23' E 002°43'4 7.1
2017-Nov-19 13:00N 51°23' E 002°37'4 7.6
2017-Nov-19 12:29N 51°22' E 002°31'612.3
2017-Nov-19 12:00N 51°19' E 002°22'713.7
2017-Nov-19 11:31N 51°15' E 002°13'917.0
2017-Nov-19 11:01N 51°12' E 002°01'1121.3
2017-Nov-19 10:31N 51°08' E 001°46'1020.5
2017-Nov-19 10:01N 51°00' E 001°34'1019.9
2017-Nov-19 09:31N 50°51' E 001°28'1019.5
2017-Nov-19 09:00N 50°42' E 001°22'2020.5
2017-Nov-19 08:00N 50°29' E 000°57'2521.2
2017-Nov-19 06:50N 50°22' E 000°19'720.7
2017-Nov-19 06:31N 50°20' E 000°10'1020.4
2017-Nov-19 06:01N 50°16' W 000°05'1020.2
2017-Nov-19 05:31N 50°14' W 000°21'1019.9
2017-Nov-19 05:01N 50°11' W 000°36'1019.4
2017-Nov-19 04:30N 50°09' W 000°51'918.7
2017-Nov-19 04:00N 50°07' W 001°04'918.1
2017-Nov-19 03:30N 50°03' W 001°18'917.3
2017-Nov-19 03:00N 50°01' W 001°31'917.1
2017-Nov-19 02:30N 49°59' W 001°44'815.7
2017-Nov-19 02:00N 49°57' W 001°55'815.7
2017-Nov-19 01:31N 49°56' W 002°07'1117.1
2017-Nov-19 00:53N 49°53' W 002°24'718.0
2017-Nov-19 00:29N 49°52' W 002°34'918.6
2017-Nov-19 00:01N 49°50' W 002°48'1119.0
2017-Nov-18 23:25N 49°46' W 003°04'819.3
2017-Nov-18 23:00N 49°42' W 003°15'5819.7
2017-Nov-18 20:01N 49°12' W 004°32'020.8
2017-Nov-18 20:01N 49°12' W 004°33'1121.0
2017-Nov-18 19:29N 49°06' W 004°47'1021.2
2017-Nov-18 19:00N 49°01' W 005°00'1121.3
2017-Nov-18 18:30N 48°56' W 005°14'1122.0
2017-Nov-18 18:00N 48°50' W 005°28'1121.3
2017-Nov-18 17:29N 48°42' W 005°41'1121.9
2017-Nov-18 16:59N 48°32' W 005°48'1121.9
2017-Nov-18 16:30N 48°23' W 005°56'1222.0
2017-Nov-18 15:57N 48°12' W 006°04'1122.2
2017-Nov-18 15:28N 48°03' W 006°11'1122.4
2017-Nov-18 14:59N 47°53' W 006°19'1122.4
2017-Nov-18 14:29N 47°43' W 006°27'1222.7
2017-Nov-18 13:58N 47°33' W 006°35'1121.9
2017-Nov-18 13:29N 47°23' W 006°42'1121.3
2017-Nov-18 12:58N 47°13' W 006°49'1021.4
2017-Nov-18 12:30N 47°05' W 006°56'1121.2
2017-Nov-18 12:00N 46°55' W 007°03'1220.9
2017-Nov-18 11:26N 46°45' W 007°11'1220.8
2017-Nov-18 10:51N 46°34' W 007°19'27819.5
2017-Nov-17 20:36N 42°17' W 009°48'419.3
2017-Nov-17 20:25N 42°14' W 009°48'3219.5
2017-Nov-17 18:45N 41°41' W 009°50'519.7
2017-Nov-17 18:30N 41°36' W 009°49'1119.4
2017-Nov-17 17:57N 41°26' W 009°50'2719.1
2017-Nov-17 16:32N 40°59' W 009°50'119.1
2017-Nov-17 16:30N 40°58' W 009°50'919.2
2017-Nov-17 16:00N 40°48' W 009°50'1019.6
2017-Nov-17 15:31N 40°39' W 009°50'1019.7
2017-Nov-17 15:00N 40°29' W 009°50'2120.0
2017-Nov-17 13:56N 40°07' W 009°50'2119.7
2017-Nov-17 12:54N 39°47' W 009°51'719.2
2017-Nov-17 12:30N 39°39' W 009°51'1019.1
2017-Nov-17 12:00N 39°30' W 009°51'1019.4
2017-Nov-17 11:29N 39°20' W 009°52'919.7
2017-Nov-17 11:00N 39°10' W 009°52'1019.4
2017-Nov-17 10:30N 39°01' W 009°52'1019.5
2017-Nov-17 10:00N 38°51' W 009°52'1019.5
2017-Nov-17 09:30N 38°41' W 009°51'918.5
2017-Nov-17 09:00N 38°33' W 009°45'1019.2
2017-Nov-17 08:30N 38°25' W 009°38'1019.9
2017-Nov-17 08:00N 38°18' W 009°30'1019.7
2017-Nov-17 07:30N 38°10' W 009°23'1019.7
2017-Nov-17 07:00N 38°03' W 009°13'1020.3
2017-Nov-17 06:31N 37°58' W 009°02'917.9
2017-Nov-17 06:00N 37°55' W 008°51'1 2.1
2017-Nov-17 05:28N 37°56' W 008°51'0 0.0
2017-Nov-17 04:58N 37°56' W 008°51'0 0.0
2017-Nov-17 04:28N 37°56' W 008°51'0 0.0
2017-Nov-17 03:58N 37°56' W 008°51'0 0.0
2017-Nov-17 03:28N 37°56' W 008°51'0 0.0
2017-Nov-17 02:58N 37°56' W 008°51'0 0.0
2017-Nov-17 02:28N 37°56' W 008°51'0 0.0
2017-Nov-17 01:58N 37°56' W 008°51'0 0.0
2017-Nov-17 01:28N 37°56' W 008°51'0 0.0
2017-Nov-17 00:58N 37°56' W 008°51'0 0.0
2017-Nov-17 00:28N 37°56' W 008°51'0 0.0
2017-Nov-16 23:58N 37°56' W 008°51'0 0.0
2017-Nov-16 23:28N 37°56' W 008°51'0 0.0
2017-Nov-16 22:58N 37°56' W 008°51'0 0.0
2017-Nov-16 22:28N 37°56' W 008°51'0 0.0
2017-Nov-16 21:58N 37°56' W 008°51'0 0.0
2017-Nov-16 21:28N 37°56' W 008°51'0 0.0
2017-Nov-16 20:58N 37°56' W 008°51'0 0.0
2017-Nov-16 20:28N 37°56' W 008°51'0 0.0
2017-Nov-16 19:58N 37°56' W 008°51'0 0.0
2017-Nov-16 19:28N 37°56' W 008°51'0 0.0
2017-Nov-16 18:58N 37°56' W 008°51'0 0.0
2017-Nov-16 18:28N 37°56' W 008°51'0 0.0
2017-Nov-16 17:58N 37°56' W 008°51'0 0.0
2017-Nov-16 17:28N 37°56' W 008°51'0 0.0
2017-Nov-16 16:58N 37°56' W 008°51'0 0.0
2017-Nov-16 16:28N 37°56' W 008°51'0 0.0
2017-Nov-16 15:58N 37°56' W 008°51'0 0.0
2017-Nov-16 15:28N 37°56' W 008°51'0 0.0
2017-Nov-16 14:58N 37°56' W 008°51'0 0.0
2017-Nov-16 14:28N 37°56' W 008°51'0 0.0
2017-Nov-16 13:58N 37°56' W 008°51'0 0.0
2017-Nov-16 13:28N 37°56' W 008°51'0 0.0
2017-Nov-16 12:58N 37°56' W 008°51'0 0.0
2017-Nov-16 12:28N 37°56' W 008°51'0 0.0
2017-Nov-16 11:58N 37°56' W 008°51'0 0.6
2017-Nov-16 11:31N 37°56' W 008°50'1 2.2
2017-Nov-16 11:00N 37°54' W 008°51'2 3.2
2017-Nov-16 10:31N 37°53' W 008°51'2 4.2
2017-Nov-16 10:01N 37°51' W 008°52'4 8.0
2017-Nov-16 09:31N 37°47' W 008°54'611.3
2017-Nov-16 09:00N 37°42' W 008°58'817.0
2017-Nov-16 08:30N 37°35' W 009°02'917.4
2017-Nov-16 08:00N 37°27' W 009°07'918.3
2017-Nov-16 07:30N 37°19' W 009°12'918.7
2017-Nov-16 07:00N 37°10' W 009°17'918.5
2017-Nov-16 06:30N 37°01' W 009°20'917.1
2017-Nov-16 06:00N 36°52' W 009°20'917.6
2017-Nov-16 05:30N 36°46' W 009°12'917.9
2017-Nov-16 05:00N 36°43' W 009°01'918.6
2017-Nov-16 04:30N 36°40' W 008°51'918.6
2017-Nov-16 04:00N 36°37' W 008°40'918.8
2017-Nov-16 03:30N 36°33' W 008°29'1018.6
2017-Nov-16 02:59N 36°30' W 008°17'1018.5
2017-Nov-16 02:28N 36°27' W 008°06'12619.2
2017-Nov-15 19:56N 35°58' W 005°35'818.5
2017-Nov-15 19:30N 35°60' W 005°25'918.2
2017-Nov-15 19:00N 36°03' W 005°15'  

Dump ship's entire track history